22 mai 2022

Temps Code Temps Temp. Vue Des nuages Vent METAR/SPECI
08:50
V
17 °C 10 km+ - 160°   160° 4 kt METAR EDDL 220650Z AUTO 16004KT 110V200 CAVOK 17/11 Q1017 NOSIG
08:20
V
15 °C 10 km+ - Var   Var 2 kt METAR EDDL 220620Z AUTO VRB02KT CAVOK 15/10 Q1017 NOSIG
07:50
V
15 °C 10 km+ - 130°   130° 3 kt METAR EDDL 220550Z AUTO 13003KT 100V180 CAVOK 15/11 Q1017 NOSIG
07:20
V
13 °C 10 km+ - Var   Var 2 kt METAR EDDL 220520Z AUTO VRB02KT CAVOK 13/11 Q1017 NOSIG
06:50
V
10 °C 10 km+ - 070°   070° 3 kt METAR EDDL 220450Z AUTO 07003KT 020V120 CAVOK 10/09 Q1017 NOSIG
06:20
V
10 °C 10 km+ - Var   Var 2 kt METAR EDDL 220420Z AUTO VRB02KT CAVOK 10/09 Q1017 NOSIG
05:50
V
9 °C 10 km+ - 070°   070° 3 kt METAR EDDL 220350Z AUTO 07003KT CAVOK 09/08 Q1017 NOSIG
05:20
V
9 °C 10 km+ - Var   Var 2 kt METAR EDDL 220320Z AUTO VRB02KT CAVOK 09/08 Q1018 NOSIG
04:50
V
9 °C 10 km+ - Var   Var 2 kt METAR EDDL 220250Z AUTO VRB02KT CAVOK 09/08 Q1018 NOSIG
04:20
V
10 °C 10 km+ - 010°   010° 2 kt METAR EDDL 220220Z AUTO 01002KT CAVOK 10/09 Q1018 NOSIG
03:50
V
10 °C 10 km+ - 020°   020° 2 kt METAR EDDL 220150Z AUTO 02002KT CAVOK 10/09 Q1019 NOSIG
03:20
V
10 °C 10 km+ - Var   Var 2 kt METAR EDDL 220120Z AUTO VRB02KT CAVOK 10/09 Q1019 NOSIG
02:50
V
10 °C 10 km+ - 020°   020° 3 kt METAR EDDL 220050Z AUTO 02003KT CAVOK 10/10 Q1019 NOSIG
02:20
V
10 °C 10 km+ - 010°   010° 2 kt METAR EDDL 220020Z AUTO 01002KT CAVOK 10/10 Q1019 NOSIG
01:50
V
10 °C 10 km+ - 020°   020° 1 kt METAR EDDL 212350Z AUTO 02001KT CAVOK 10/09 Q1019 NOSIG
01:20
V
10 °C 10 km+ - 010°   010° 1 kt METAR EDDL 212320Z AUTO 01001KT CAVOK 10/09 Q1019 NOSIG
00:50
V
11 °C 10 km+ - 030°   030° 2 kt METAR EDDL 212250Z AUTO 03002KT CAVOK 11/09 Q1019 NOSIG
00:20
V
11 °C 10 km+ - 070°   070° 3 kt METAR EDDL 212220Z AUTO 07003KT CAVOK 11/09 Q1019

21 mai 2022

Temps Code Temps Temp. Vue Des nuages Vent METAR/SPECI
23:50
V
11 °C 10 km+ - 040°   040° 3 kt METAR EDDL 212150Z AUTO 04003KT CAVOK 11/10 Q1020 NOSIG
23:20
V
12 °C 10 km+ - 030°   030° 4 kt METAR EDDL 212120Z AUTO 03004KT CAVOK 12/10 Q1020 NOSIG
22:50
V
12 °C 10 km+ - 040°   040° 3 kt METAR EDDL 212050Z AUTO 04003KT 9999 FEW001 12/10 Q1020 NOSIG
22:20
V
14 °C 10 km+ - 350°   350° 3 kt METAR EDDL 212020Z AUTO 35003KT CAVOK 14/10 Q1020 NOSIG
21:50
V
16 °C 10 km+ - 350°   350° 4 kt METAR EDDL 211950Z AUTO 35004KT CAVOK 16/10 Q1020 NOSIG
21:20
V
16 °C 10 km+ - 340°   340° 2 kt METAR EDDL 211920Z AUTO 34002KT CAVOK 16/12 Q1020 NOSIG
20:50
V
18 °C 10 km+ - 300°   300° 2 kt METAR EDDL 211850Z AUTO 30002KT CAVOK 18/10 Q1020 NOSIG
20:20
V
18 °C 10 km+ - 270°   270° 3 kt METAR EDDL 211820Z AUTO 27003KT CAVOK 18/09 Q1020 NOSIG
19:50
V
18 °C 10 km+ - 280°   280° 5 kt METAR EDDL 211750Z AUTO 28005KT CAVOK 18/08 Q1020 NOSIG
19:20
V
19 °C 10 km+ - 260°   260° 6 kt METAR EDDL 211720Z AUTO 26006KT CAVOK 19/08 Q1020 NOSIG
18:50
V
19 °C 10 km+ - 280°   280° 6 kt METAR EDDL 211650Z AUTO 28006KT 250V310 CAVOK 19/09 Q1020 NOSIG
18:20
V
19 °C 10 km+ - 270°   270° 6 kt METAR EDDL 211620Z AUTO 27006KT 240V300 CAVOK 19/09 Q1020 NOSIG
17:50
V
19 °C 10 km+ - 270°   270° 8 kt METAR EDDL 211550Z AUTO 27008KT 9999 FEW045 19/08 Q1020 NOSIG
17:20
V
19 °C 10 km+ - 290°   290° 7 kt METAR EDDL 211520Z AUTO 29007KT 260V360 CAVOK 19/09 Q1021 NOSIG
16:50
V
19 °C 10 km+ - 280°   280° 4 kt METAR EDDL 211450Z AUTO 28004KT 210V320 CAVOK 19/09 Q1021 NOSIG
16:20
V
18 °C 10 km+ - 280°   280° 8 kt METAR EDDL 211420Z AUTO 28008KT 240V300 9999 FEW045 18/09 Q1021 NOSIG
15:50
V
19 °C 10 km+ - 260°   260° 9 kt METAR EDDL 211350Z AUTO 26009KT 220V300 9999 FEW043 19/09 Q1021 NOSIG
15:20
V
18 °C 10 km+ - 260°   260° 8 kt METAR EDDL 211320Z AUTO 26008KT 220V310 9999 FEW040 18/09 Q1021 NOSIG
14:50
V
18 °C 10 km+ - 250°   250° 9 kt METAR EDDL 211250Z AUTO 25009KT 9999 FEW044 18/09 Q1021 NOSIG
14:20
V
18 °C 10 km+ - 250°   250° 14 kt METAR EDDL 211220Z AUTO 25014KT 210V280 9999 FEW042 18/09 Q1022
13:50
V
18 °C 10 km+ - 240°   240° 11 kt METAR EDDL 211150Z AUTO 24011KT 210V290 9999 FEW033 18/09 Q1022 NOSIG
13:20
V
18 °C 10 km+ - 230°   230° 11 kt METAR EDDL 211120Z AUTO 23011KT 200V260 9999 FEW001 18/10 Q1022 NOSIG
12:50
V
17 °C 10 km+ - 250°   250° 10 kt METAR EDDL 211050Z AUTO 25010KT 220V280 9999 FEW028 17/09 Q1022 NOSIG
12:20
V
17 °C 10 km+ 4.300 ft 250°   250° 9 kt METAR EDDL 211020Z AUTO 25009KT 220V280 9999 FEW001 BKN043 17/10 Q1022 NOSIG
11:50
V
16 °C 10 km+ 4.000 ft 240°   240° 13 kt METAR EDDL 210950Z AUTO 24013KT 9999 FEW024 BKN040 16/10 Q1022 NOSIG
11:20
M
15 °C 10 km+ 2.200 ft 250°   250° 12 kt METAR EDDL 210920Z AUTO 25012KT 220V290 9999 BKN022 BKN029 BKN035 15/10 Q1022 NOSIG
10:50
V
15 °C 10 km+ 3.900 ft 240°   240° 13 kt METAR EDDL 210850Z AUTO 24013KT 9999 FEW019 BKN039 BKN047 15/10 Q1022 NOSIG
10:20
M
14 °C 10 km+ 1.800 ft 250°   250° 10 kt METAR EDDL 210820Z AUTO 25010KT 220V280 9999 BKN018 OVC023 14/10 Q1022 BECMG 26015KT
09:50
M
13 °C 10 km+ 1.800 ft 240°   240° 10 kt METAR EDDL 210750Z AUTO 24010KT 9999 BKN018 13/09 Q1022 BECMG 26014KT
09:20
M
13 °C 10 km+ 2.000 ft 240°   240° 12 kt METAR EDDL 210720Z AUTO 24012KT 9999 OVC020 13/09 Q1021 NOSIG
08:50
M
13 °C 10 km+ 2.100 ft 230°   230° 10 kt METAR EDDL 210650Z AUTO 23010KT 9999 OVC021 13/09 Q1021 NOSIG
08:20
M
13 °C 10 km+ 2.600 ft 240°   240° 12 kt METAR EDDL 210620Z AUTO 24012KT 9999 SCT018 OVC026 13/09 Q1021 NOSIG
07:50
V
13 °C 10 km+ 3.100 ft 230°   230° 12 kt METAR EDDL 210550Z AUTO 23012KT 9999 FEW016 OVC031 13/09 Q1021 NOSIG
07:20
M
12 °C 10 km+ 2.900 ft 230°   230° 11 kt METAR EDDL 210520Z AUTO 23011KT 9999 SCT023 OVC029 12/09 Q1021 NOSIG
06:50
M
12 °C 10 km+ 1.700 ft 240°   240° 9 kt METAR EDDL 210450Z AUTO 24009KT 210V270 9999 BKN017 OVC021 12/09 Q1021 NOSIG
06:20
M
12 °C 10 km+ 1.600 ft 240°   240° 10 kt METAR EDDL 210420Z AUTO 24010KT 9999 OVC016 12/09 Q1020 NOSIG
05:50
M
12 °C 10 km+ 1.600 ft 240°   240° 11 kt METAR EDDL 210350Z AUTO 24011KT 220V280 9999 OVC016 12/09 Q1020 NOSIG
05:20
M
12 °C 10 km+ 1.600 ft 230°   230° 10 kt METAR EDDL 210320Z AUTO 23010KT 9999 OVC016 12/09 Q1020 NOSIG
04:50
M
11 °C 10 km+ 1.800 ft 220°   220° 8 kt METAR EDDL 210250Z AUTO 22008KT 9999 BKN018 11/09 Q1020 NOSIG
04:20
V
11 °C 10 km+ - 220°   220° 9 kt METAR EDDL 210220Z AUTO 22009KT CAVOK 11/09 Q1020 NOSIG
03:50
V
11 °C 10 km+ - 210°   210° 8 kt METAR EDDL 210150Z AUTO 21008KT CAVOK 11/09 Q1020 NOSIG
03:20
V
11 °C 10 km+ - 220°   220° 7 kt METAR EDDL 210120Z AUTO 22007KT CAVOK 11/09 Q1020 NOSIG
02:50
V
10 °C 10 km+ - 220°   220° 7 kt METAR EDDL 210050Z AUTO 22007KT CAVOK 10/09 Q1020 NOSIG
02:20
V
10 °C 10 km+ - 220°   220° 6 kt METAR EDDL 210020Z AUTO 22006KT CAVOK 10/09 Q1020 NOSIG
01:50
V
10 °C 10 km+ - 220°   220° 6 kt METAR EDDL 202350Z AUTO 22006KT CAVOK 10/09 Q1020 NOSIG
01:20
V
10 °C 10 km+ - 230°   230° 6 kt METAR EDDL 202320Z AUTO 23006KT CAVOK 10/09 Q1020 NOSIG
00:50
V
12 °C 10 km+ - 250°   250° 6 kt METAR EDDL 202250Z AUTO 25006KT CAVOK 12/09 Q1020 NOSIG
00:20
V
13 °C 10 km+ 3.200 ft 260°   260° 9 kt METAR EDDL 202220Z AUTO 26009KT 9999 SCT022 BKN032 13/09 Q1020 NOSIG

20 mai 2022

Temps Code Temps Temp. Vue Des nuages Vent METAR/SPECI
23:50
V
13 °C 10 km+ 3.300 ft 270°   270° 9 kt METAR EDDL 202150Z AUTO 27009KT 220V300 9999 FEW023 BKN033 13/09 Q1020 NOSIG
23:20
V
13 °C 10 km+ 3.300 ft 270°   270° 12 kt METAR EDDL 202120Z AUTO 27012KT 240V300 9999 FEW001 BKN033 13/09 Q1019 NOSIG
22:50
V
14 °C 10 km+ 3.000 ft 260°   260° 15 kt METAR EDDL 202050Z AUTO 26015KT 9999 FEW001 BKN030 OVC036 14/10 Q1019 BECMG 26008KT
22:20
M
14 °C 10 km+ 2.800 ft 260°   260° 13 kt METAR EDDL 202020Z AUTO 26013KT 230V290 9999 FEW018 BKN028 BKN039 14/11 Q1018 NOSIG
21:50
M
15 °C 10 km+ 2.500 ft 260°   260° 13 kt METAR EDDL 201950Z AUTO 26013KT 230V290 9999 FEW018 BKN025 OVC030 15/11 Q1018 NOSIG
21:20
M
15 °C 10 km+ 2.300 ft 270°   270° 13 kt METAR EDDL 201920Z AUTO 27013KT 240V300 9999 SCT017 BKN023 OVC029 15/11 Q1017 NOSIG
20:50
M
15 °C 10 km+ 1.700 ft 280°   280° 14 kt METAR EDDL 201850Z AUTO 28014KT 9999 BKN017 BKN022 OVC027 15/12 Q1017 NOSIG
20:20
M
16 °C 10 km+ 2.600 ft 270°   270° 19 kt METAR EDDL 201820Z AUTO 27019KT 9999 SCT018 BKN026 OVC035 16/12 Q1016 TEMPO BKN013
19:50
M
17 °C 10 km+ 2.700 ft 260°   260° 19 29 kt METAR EDDL 201750Z AUTO 26019G29KT 9999 FEW020 BKN027 BKN034 17/13 Q1015 TEMPO BKN013
19:20
M
19 °C 10 km+ 2.000 ft 260°   260° 20 kt METAR EDDL 201720Z AUTO 26020KT 9999 BKN020 BKN040 19/15 Q1014 TEMPO BKN012
18:50
V
20 °C 10 km+ - 240°   240° 18 kt METAR EDDL 201650Z AUTO 24018KT 9999 FEW017 20/16 Q1013 TEMPO 25015G25KT
18:20
V
19 °C 10 km+ - 240°   240° 17 kt METAR EDDL 201620Z AUTO 24017KT 9999 FEW012 19/16 Q1013 RESHRA NOSIG
17:50
V
19 °C 10 km+ 4.400 ft 260°   260° 21 kt METAR EDDL 201550Z AUTO 26021KT 9999 SHRA SCT025 BKN044 FEW///CB 19/16 Q1013 TEMPO SHRA SCT015CB
17:20
V
21 °C 10 km+ - 220°   220° 9 kt METAR EDDL 201520Z AUTO 22009KT CAVOK 21/18 Q1013 TEMPO 24015G25KT SHRA SCT020CB
16:50
V
21 °C 10 km+ - 220°   220° 9 kt METAR EDDL 201450Z AUTO 22009KT 9999 -RA NSC 21/18 Q1013 TEMPO 24015G25KT TSRA SCT030CB
16:20
V
21 °C 10 km+ - 200°   200° 11 kt METAR EDDL 201420Z AUTO 20011KT CAVOK 21/18 Q1014 TEMPO 24015G25KT SHRA SCT030CB
15:50
V
20 °C 10 km+ - 160°   160° 7 kt METAR EDDL 201350Z AUTO 16007KT 110V200 9999 -SHRA FEW030 FEW///TCU 20/18 Q1013 RETSGR NOSIG
15:20
V
21 °C 8 km - 200°   200° 14 29 kt METAR EDDL 201320Z AUTO 20014G29KT 150V220 8000 +TSGRRA FEW006 BKN///CB 21/18 Q1015 TEMPO 24020G40KT 2000 +TSGRRA
14:50
V
23 °C 10 km+ - 160°   160° 10 kt METAR EDDL 201250Z AUTO 16010KT 130V190 9999 -RA FEW030 23/18 Q1014 TEMPO 23020G45KT 1200 +TSGRRA BKN020CB
14:20
V
24 °C 10 km+ - 120°   120° 10 kt METAR EDDL 201220Z AUTO 12010KT 090V150 9999 FEW031 24/17 Q1013 TEMPO 23020G45KT 1200 +TSGRRA BKN020CB
13:50
V
24 °C 10 km+ - 120°   120° 8 kt METAR EDDL 201150Z AUTO 12008KT 070V180 9999 FEW028 24/18 Q1014 NOSIG
13:20
V
24 °C 10 km+ - 110°   110° 8 kt METAR EDDL 201120Z AUTO 11008KT 070V160 9999 FEW026 24/17 Q1015 NOSIG
12:50
V
24 °C 10 km+ - 080°   080° 8 kt METAR EDDL 201050Z AUTO 08008KT 050V130 9999 FEW021 24/17 Q1016 NOSIG
12:20
V
23 °C 10 km+ - 130°   130° 6 kt METAR EDDL 201020Z AUTO 13006KT 080V190 9999 FEW001 23/17 Q1017
11:50
M
22 °C 10 km+ 2.200 ft 100°   100° 5 kt METAR EDDL 200950Z AUTO 10005KT 030V140 9999 BKN022 22/16 Q1018 NOSIG
11:20
M
22 °C 10 km+ 2.200 ft 030°   030° 5 kt METAR EDDL 200920Z AUTO 03005KT 350V070 9999 BKN022 22/16 Q1018
10:50
V
21 °C 10 km+ - 080°   080° 4 kt METAR EDDL 200850Z AUTO 08004KT 020V130 9999 SCT022 21/16 Q1019 NOSIG
10:20
V
20 °C 10 km+ - 030°   030° 4 kt METAR EDDL 200820Z AUTO 03004KT 290V080 9999 FEW021 20/14 Q1019 NOSIG
09:50
V
20 °C 10 km+ - 030°   030° 4 kt METAR EDDL 200750Z AUTO 03004KT 350V070 CAVOK 20/14 Q1019 NOSIG
09:20
V
19 °C 10 km+ - 020°   020° 4 kt METAR EDDL 200720Z AUTO 02004KT 340V050 9999 SCT021 19/13 Q1020 NOSIG
08:50
V
18 °C 10 km+ - 050°   050° 4 kt METAR EDDL 200650Z AUTO 05004KT 360V080 CAVOK 18/13 Q1020 NOSIG
08:20
V
17 °C 10 km+ - 060°   060° 4 kt METAR EDDL 200620Z AUTO 06004KT 030V090 CAVOK 17/13 Q1020 NOSIG
07:50
M
16 °C 7 km - 030°   030° 3 kt METAR EDDL 200550Z AUTO 03003KT 360V060 7000 NSC 16/14 Q1020 NOSIG
07:20
M
15 °C 7 km - 030°   030° 2 kt METAR EDDL 200520Z AUTO 03002KT 7000 SCT025 15/14 Q1021 NOSIG
06:50
M
14 °C 5 km 2.700 ft 030°   030° 4 kt METAR EDDL 200450Z AUTO 03004KT 5000 BR BKN027 OVC032 14/14 Q1021 TEMPO 4000 BCFG
Données plus anciennes

Télécharge notre application

Un accès facile à toute la météo aéronautique sur ton téléphone portable et ta tablette.
Avec de nombreuses fonctionnalités non disponibles sur le site Web, comme la prise en charge hors ligne et une liste personnelle d'aéroports.

Nous et des tiers suivons ton comportement sur Internet sur notre site Web à l'aide de cookies. Si tu continues, nous supposons que tu acceptes notre politique en matière de cookies. Apprendre plus